Terminal Aerodrome Forecast
Issued by NWS Upton, NY

Home | Current Version | Previous Version | Text Only | Print | Product List | Glossary On
Versions: 1 2 3 4 5 6 7 8 9 10 11 12 13 14 15 16 17 18 19 20 21 22 23 24 25 26 27 28 29 30 31 32 33 34
737
FTUS41 KOKX 171333 AAA
TAFISP
TAF AMD
KISP 171333Z 1714/1812 VRB03KT P6SM FEW025 BKN035 OVC050
     FM171800 12007KT 2SM -RA SCT005 OVC018
      TEMPO 1722/1724 1SM -RA BR BKN004 OVC010
     FM180000 10007KT 1SM -RA BR OVC004
     FM180900 02006KT 1SM -RA BR OVC003=

USA.gov is the U.S. government's official web portal to all federal, state and local government web resources and services.